sensor_id;sensor_type;location;lat;lon;timestamp;temperature;humidity
68804;SHT31;55787;52.678;13.314;2022-07-29T00:02:02;13.28;79.94
68804;SHT31;55787;52.678;13.314;2022-07-29T00:04:28;13.24;80.02
68804;SHT31;55787;52.678;13.314;2022-07-29T00:06:55;13.19;80.31
68804;SHT31;55787;52.678;13.314;2022-07-29T00:09:21;13.18;80.70
68804;SHT31;55787;52.678;13.314;2022-07-29T00:11:48;13.15;80.59
68804;SHT31;55787;52.678;13.314;2022-07-29T00:14:14;13.10;80.56
68804;SHT31;55787;52.678;13.314;2022-07-29T00:16:42;13.07;81.09
68804;SHT31;55787;52.678;13.314;2022-07-29T00:19:08;13.02;81.26
68804;SHT31;55787;52.678;13.314;2022-07-29T00:21:36;13.00;81.67
68804;SHT31;55787;52.678;13.314;2022-07-29T00:24:02;12.97;81.63
68804;SHT31;55787;52.678;13.314;2022-07-29T00:26:29;12.94;81.86
68804;SHT31;55787;52.678;13.314;2022-07-29T00:28:59;12.97;81.97
68804;SHT31;55787;52.678;13.314;2022-07-29T00:31:45;12.93;81.84
68804;SHT31;55787;52.678;13.314;2022-07-29T00:34:12;12.90;82.35
68804;SHT31;55787;52.678;13.314;2022-07-29T00:36:57;12.85;82.06
68804;SHT31;55787;52.678;13.314;2022-07-29T00:39:23;12.85;82.37
68804;SHT31;55787;52.678;13.314;2022-07-29T00:41:52;12.84;82.38
68804;SHT31;55787;52.678;13.314;2022-07-29T00:44:19;12.80;82.60
68804;SHT31;55787;52.678;13.314;2022-07-29T00:46:46;12.81;82.90
68804;SHT31;55787;52.678;13.314;2022-07-29T00:49:13;12.79;83.00
68804;SHT31;55787;52.678;13.314;2022-07-29T00:51:40;12.76;83.52
68804;SHT31;55787;52.678;13.314;2022-07-29T00:54:07;12.76;83.28
68804;SHT31;55787;52.678;13.314;2022-07-29T00:56:33;12.74;83.49
68804;SHT31;55787;52.678;13.314;2022-07-29T00:59:00;12.70;83.52
68804;SHT31;55787;52.678;13.314;2022-07-29T01:01:26;12.70;83.47
68804;SHT31;55787;52.678;13.314;2022-07-29T01:03:54;12.68;83.77
68804;SHT31;55787;52.678;13.314;2022-07-29T01:06:21;12.65;83.79
68804;SHT31;55787;52.678;13.314;2022-07-29T01:08:50;12.61;83.63
68804;SHT31;55787;52.678;13.314;2022-07-29T01:11:17;12.57;83.92
68804;SHT31;55787;52.678;13.314;2022-07-29T01:13:45;12.54;83.88
68804;SHT31;55787;52.678;13.314;2022-07-29T01:16:21;12.54;84.62
68804;SHT31;55787;52.678;13.314;2022-07-29T01:18:59;12.50;84.20
68804;SHT31;55787;52.678;13.314;2022-07-29T01:24:30;12.42;84.81
68804;SHT31;55787;52.678;13.314;2022-07-29T01:32:12;12.33;84.88
68804;SHT31;55787;52.678;13.314;2022-07-29T01:35:17;12.29;84.93
68804;SHT31;55787;52.678;13.314;2022-07-29T01:37:48;12.25;85.09
68804;SHT31;55787;52.678;13.314;2022-07-29T01:40:23;12.22;85.70
68804;SHT31;55787;52.678;13.314;2022-07-29T01:42:54;12.23;86.00
68804;SHT31;55787;52.678;13.314;2022-07-29T01:45:28;12.23;86.27
68804;SHT31;55787;52.678;13.314;2022-07-29T01:48:05;12.19;86.04
68804;SHT31;55787;52.678;13.314;2022-07-29T01:50:46;12.15;86.22
68804;SHT31;55787;52.678;13.314;2022-07-29T01:53:18;12.12;86.56
68804;SHT31;55787;52.678;13.314;2022-07-29T01:55:48;12.12;86.62
68804;SHT31;55787;52.678;13.314;2022-07-29T01:58:17;12.12;86.98
68804;SHT31;55787;52.678;13.314;2022-07-29T02:00:46;12.18;87.13
68804;SHT31;55787;52.678;13.314;2022-07-29T02:03:15;12.13;86.90
68804;SHT31;55787;52.678;13.314;2022-07-29T02:05:45;12.15;87.11
68804;SHT31;55787;52.678;13.314;2022-07-29T02:08:13;12.18;87.18
68804;SHT31;55787;52.678;13.314;2022-07-29T02:10:40;12.15;87.42
68804;SHT31;55787;52.678;13.314;2022-07-29T02:13:09;12.13;87.40
68804;SHT31;55787;52.678;13.314;2022-07-29T02:15:38;12.18;87.12
68804;SHT31;55787;52.678;13.314;2022-07-29T02:18:15;12.18;87.39
68804;SHT31;55787;52.678;13.314;2022-07-29T02:20:46;12.12;87.18
68804;SHT31;55787;52.678;13.314;2022-07-29T02:23:17;12.08;87.37
68804;SHT31;55787;52.678;13.314;2022-07-29T02:25:48;12.02;87.32
68804;SHT31;55787;52.678;13.314;2022-07-29T02:28:17;11.99;87.49
68804;SHT31;55787;52.678;13.314;2022-07-29T02:30:45;11.95;87.81
68804;SHT31;55787;52.678;13.314;2022-07-29T02:33:14;11.95;87.89
68804;SHT31;55787;52.678;13.314;2022-07-29T02:35:43;11.95;87.89
68804;SHT31;55787;52.678;13.314;2022-07-29T02:38:14;11.95;88.20
68804;SHT31;55787;52.678;13.314;2022-07-29T02:41:23;11.99;88.11
68804;SHT31;55787;52.678;13.314;2022-07-29T02:44:06;12.03;87.87
68804;SHT31;55787;52.678;13.314;2022-07-29T02:46:36;12.01;88.07
68804;SHT31;55787;52.678;13.314;2022-07-29T02:49:06;12.01;88.46
68804;SHT31;55787;52.678;13.314;2022-07-29T02:51:56;12.02;88.19
68804;SHT31;55787;52.678;13.314;2022-07-29T02:54:44;12.03;87.79
68804;SHT31;55787;52.678;13.314;2022-07-29T02:57:21;12.02;87.85
68804;SHT31;55787;52.678;13.314;2022-07-29T02:59:52;12.03;87.96
68804;SHT31;55787;52.678;13.314;2022-07-29T03:02:20;12.03;87.83
68804;SHT31;55787;52.678;13.314;2022-07-29T03:04:47;12.05;87.58
68804;SHT31;55787;52.678;13.314;2022-07-29T03:07:18;12.09;87.86
68804;SHT31;55787;52.678;13.314;2022-07-29T03:09:45;12.11;87.82
68804;SHT31;55787;52.678;13.314;2022-07-29T03:12:13;12.15;87.84
68804;SHT31;55787;52.678;13.314;2022-07-29T03:14:41;12.18;87.73
68804;SHT31;55787;52.678;13.314;2022-07-29T03:17:09;12.22;87.60
68804;SHT31;55787;52.678;13.314;2022-07-29T03:19:36;12.23;87.49
68804;SHT31;55787;52.678;13.314;2022-07-29T03:22:03;12.25;87.44
68804;SHT31;55787;52.678;13.314;2022-07-29T03:24:35;12.26;87.52
68804;SHT31;55787;52.678;13.314;2022-07-29T03:27:03;12.30;87.88
68804;SHT31;55787;52.678;13.314;2022-07-29T03:29:30;12.32;87.36
68804;SHT31;55787;52.678;13.314;2022-07-29T03:31:59;12.34;87.24
68804;SHT31;55787;52.678;13.314;2022-07-29T03:34:27;12.34;86.99
68804;SHT31;55787;52.678;13.314;2022-07-29T03:36:54;12.36;87.03
68804;SHT31;55787;52.678;13.314;2022-07-29T03:39:24;12.36;87.25
68804;SHT31;55787;52.678;13.314;2022-07-29T03:41:53;12.40;86.91
68804;SHT31;55787;52.678;13.314;2022-07-29T03:44:21;12.39;86.81
68804;SHT31;55787;52.678;13.314;2022-07-29T03:46:50;12.37;86.78
68804;SHT31;55787;52.678;13.314;2022-07-29T03:49:18;12.39;86.74
68804;SHT31;55787;52.678;13.314;2022-07-29T03:51:45;12.36;86.89
68804;SHT31;55787;52.678;13.314;2022-07-29T03:54:12;12.36;86.98
68804;SHT31;55787;52.678;13.314;2022-07-29T03:56:43;12.39;86.79
68804;SHT31;55787;52.678;13.314;2022-07-29T03:59:15;12.40;86.83
68804;SHT31;55787;52.678;13.314;2022-07-29T04:01:42;12.44;86.59
68804;SHT31;55787;52.678;13.314;2022-07-29T04:04:09;12.49;86.48
68804;SHT31;55787;52.678;13.314;2022-07-29T04:06:44;12.49;86.52
68804;SHT31;55787;52.678;13.314;2022-07-29T04:09:13;12.50;86.76
68804;SHT31;55787;52.678;13.314;2022-07-29T04:11:40;12.50;86.92
68804;SHT31;55787;52.678;13.314;2022-07-29T04:14:27;12.50;86.53
68804;SHT31;55787;52.678;13.314;2022-07-29T04:16:53;12.53;86.70
68804;SHT31;55787;52.678;13.314;2022-07-29T04:19:20;12.57;86.51
68804;SHT31;55787;52.678;13.314;2022-07-29T04:21:46;12.61;86.16
68804;SHT31;55787;52.678;13.314;2022-07-29T04:24:13;12.67;85.97
68804;SHT31;55787;52.678;13.314;2022-07-29T04:26:40;12.73;85.94
68804;SHT31;55787;52.678;13.314;2022-07-29T04:29:07;12.76;85.80
68804;SHT31;55787;52.678;13.314;2022-07-29T04:31:33;12.74;85.74
68804;SHT31;55787;52.678;13.314;2022-07-29T04:34:00;12.77;86.16
68804;SHT31;55787;52.678;13.314;2022-07-29T04:36:26;12.81;85.83
68804;SHT31;55787;52.678;13.314;2022-07-29T04:38:54;12.81;85.73
68804;SHT31;55787;52.678;13.314;2022-07-29T04:41:21;12.81;85.80
68804;SHT31;55787;52.678;13.314;2022-07-29T04:43:48;12.84;85.69
68804;SHT31;55787;52.678;13.314;2022-07-29T04:46:15;12.87;85.72
68804;SHT31;55787;52.678;13.314;2022-07-29T04:48:42;12.93;85.71
68804;SHT31;55787;52.678;13.314;2022-07-29T04:51:08;12.97;86.00
68804;SHT31;55787;52.678;13.314;2022-07-29T04:53:35;13.00;85.49
68804;SHT31;55787;52.678;13.314;2022-07-29T04:56:02;13.08;85.71
68804;SHT31;55787;52.678;13.314;2022-07-29T04:58:28;13.15;85.56
68804;SHT31;55787;52.678;13.314;2022-07-29T05:00:55;13.25;84.87
68804;SHT31;55787;52.678;13.314;2022-07-29T05:03:21;13.38;84.56
68804;SHT31;55787;52.678;13.314;2022-07-29T05:05:48;13.49;83.90
68804;SHT31;55787;52.678;13.314;2022-07-29T05:08:14;13.62;83.67
68804;SHT31;55787;52.678;13.314;2022-07-29T05:10:41;13.79;83.07
68804;SHT31;55787;52.678;13.314;2022-07-29T05:13:07;14.00;82.90
68804;SHT31;55787;52.678;13.314;2022-07-29T05:15:34;14.18;81.12
68804;SHT31;55787;52.678;13.314;2022-07-29T05:18:01;14.42;81.25
68804;SHT31;55787;52.678;13.314;2022-07-29T05:20:28;14.67;80.05
68804;SHT31;55787;52.678;13.314;2022-07-29T05:22:56;15.02;78.89
68804;SHT31;55787;52.678;13.314;2022-07-29T05:25:25;15.39;77.79
68804;SHT31;55787;52.678;13.314;2022-07-29T05:28:10;15.72;75.59
68804;SHT31;55787;52.678;13.314;2022-07-29T05:30:36;15.88;75.80
68804;SHT31;55787;52.678;13.314;2022-07-29T05:33:03;15.97;74.58
68804;SHT31;55787;52.678;13.314;2022-07-29T05:35:30;16.01;74.53
68804;SHT31;55787;52.678;13.314;2022-07-29T05:37:56;16.02;74.26
68804;SHT31;55787;52.678;13.314;2022-07-29T05:40:23;16.02;74.50
68804;SHT31;55787;52.678;13.314;2022-07-29T05:42:49;16.05;74.73
68804;SHT31;55787;52.678;13.314;2022-07-29T05:45:15;16.09;74.11
68804;SHT31;55787;52.678;13.314;2022-07-29T05:47:43;16.13;74.15
68804;SHT31;55787;52.678;13.314;2022-07-29T05:50:09;16.12;74.09
68804;SHT31;55787;52.678;13.314;2022-07-29T05:52:36;16.13;74.77
68804;SHT31;55787;52.678;13.314;2022-07-29T05:55:02;16.12;74.42
68804;SHT31;55787;52.678;13.314;2022-07-29T05:57:31;16.09;73.38
68804;SHT31;55787;52.678;13.314;2022-07-29T05:59:58;16.12;73.99
68804;SHT31;55787;52.678;13.314;2022-07-29T06:02:25;16.22;74.02
68804;SHT31;55787;52.678;13.314;2022-07-29T06:04:51;16.40;73.31
68804;SHT31;55787;52.678;13.314;2022-07-29T06:07:18;16.64;72.95
68804;SHT31;55787;52.678;13.314;2022-07-29T06:09:44;16.84;72.66
68804;SHT31;55787;52.678;13.314;2022-07-29T06:12:10;17.00;70.72
68804;SHT31;55787;52.678;13.314;2022-07-29T06:14:37;17.21;70.82
68804;SHT31;55787;52.678;13.314;2022-07-29T06:17:04;17.43;69.78
68804;SHT31;55787;52.678;13.314;2022-07-29T06:19:34;17.66;67.26
68804;SHT31;55787;52.678;13.314;2022-07-29T06:22:01;17.79;67.39
68804;SHT31;55787;52.678;13.314;2022-07-29T06:24:28;17.82;68.54
68804;SHT31;55787;52.678;13.314;2022-07-29T06:26:54;17.87;66.91
68804;SHT31;55787;52.678;13.314;2022-07-29T06:29:21;17.89;66.70
68804;SHT31;55787;52.678;13.314;2022-07-29T06:31:47;17.96;66.37
68804;SHT31;55787;52.678;13.314;2022-07-29T06:34:13;17.96;65.73
68804;SHT31;55787;52.678;13.314;2022-07-29T06:36:40;17.87;66.58
68804;SHT31;55787;52.678;13.314;2022-07-29T06:39:07;17.99;68.25
68804;SHT31;55787;52.678;13.314;2022-07-29T06:41:36;18.33;66.14
68804;SHT31;55787;52.678;13.314;2022-07-29T06:44:03;18.44;66.50
68804;SHT31;55787;52.678;13.314;2022-07-29T06:46:30;18.33;65.24
68804;SHT31;55787;52.678;13.314;2022-07-29T06:48:57;18.34;66.24
68804;SHT31;55787;52.678;13.314;2022-07-29T06:51:24;18.34;66.68
68804;SHT31;55787;52.678;13.314;2022-07-29T06:53:51;18.38;66.95
68804;SHT31;55787;52.678;13.314;2022-07-29T06:56:29;18.45;66.53
68804;SHT31;55787;52.678;13.314;2022-07-29T06:58:56;18.67;66.85
68804;SHT31;55787;52.678;13.314;2022-07-29T07:01:22;18.99;65.79
68804;SHT31;55787;52.678;13.314;2022-07-29T07:03:49;19.60;63.77
68804;SHT31;55787;52.678;13.314;2022-07-29T07:06:15;20.02;60.84
68804;SHT31;55787;52.678;13.314;2022-07-29T07:08:42;20.53;61.00
68804;SHT31;55787;52.678;13.314;2022-07-29T07:11:09;20.89;57.35
68804;SHT31;55787;52.678;13.314;2022-07-29T07:13:35;21.17;58.27
68804;SHT31;55787;52.678;13.314;2022-07-29T07:16:03;21.89;58.41
68804;SHT31;55787;52.678;13.314;2022-07-29T07:18:30;22.63;54.54
68804;SHT31;55787;52.678;13.314;2022-07-29T07:20:57;22.78;51.98
68804;SHT31;55787;52.678;13.314;2022-07-29T07:23:23;22.56;50.32
68804;SHT31;55787;52.678;13.314;2022-07-29T07:25:50;22.65;53.32
68804;SHT31;55787;52.678;13.314;2022-07-29T07:28:17;24.03;51.46
68804;SHT31;55787;52.678;13.314;2022-07-29T07:30:49;25.96;45.44
68804;SHT31;55787;52.678;13.314;2022-07-29T07:33:16;26.32;43.91
68804;SHT31;55787;52.678;13.314;2022-07-29T07:35:42;27.76;39.60
68804;SHT31;55787;52.678;13.314;2022-07-29T07:38:10;28.04;40.98
68804;SHT31;55787;52.678;13.314;2022-07-29T07:40:36;27.56;41.86
68804;SHT31;55787;52.678;13.314;2022-07-29T07:43:03;27.25;41.69
68804;SHT31;55787;52.678;13.314;2022-07-29T07:45:30;27.63;41.82
68804;SHT31;55787;52.678;13.314;2022-07-29T07:47:58;28.16;39.04
68804;SHT31;55787;52.678;13.314;2022-07-29T07:50:25;28.71;39.05
68804;SHT31;55787;52.678;13.314;2022-07-29T07:52:55;29.80;36.22
68804;SHT31;55787;52.678;13.314;2022-07-29T07:55:24;30.24;34.26
68804;SHT31;55787;52.678;13.314;2022-07-29T07:57:51;29.53;37.08
68804;SHT31;55787;52.678;13.314;2022-07-29T08:00:17;30.00;37.96
68804;SHT31;55787;52.678;13.314;2022-07-29T08:02:48;30.31;35.57
68804;SHT31;55787;52.678;13.314;2022-07-29T08:05:15;30.38;35.46
68804;SHT31;55787;52.678;13.314;2022-07-29T08:07:45;30.49;35.87
68804;SHT31;55787;52.678;13.314;2022-07-29T08:10:16;31.72;33.62
68804;SHT31;55787;52.678;13.314;2022-07-29T08:13:03;31.78;31.37
68804;SHT31;55787;52.678;13.314;2022-07-29T08:15:30;31.30;31.52
68804;SHT31;55787;52.678;13.314;2022-07-29T08:17:57;31.02;34.47
68804;SHT31;55787;52.678;13.314;2022-07-29T08:20:23;31.80;33.41
68804;SHT31;55787;52.678;13.314;2022-07-29T08:22:50;32.80;30.35
68804;SHT31;55787;52.678;13.314;2022-07-29T08:25:17;32.69;29.65
68804;SHT31;55787;52.678;13.314;2022-07-29T08:27:47;32.69;31.71
68804;SHT31;55787;52.678;13.314;2022-07-29T08:30:13;32.92;31.27
68804;SHT31;55787;52.678;13.314;2022-07-29T08:32:40;33.75;30.18
68804;SHT31;55787;52.678;13.314;2022-07-29T08:35:21;34.03;28.11
68804;SHT31;55787;52.678;13.314;2022-07-29T08:37:47;34.06;28.00
68804;SHT31;55787;52.678;13.314;2022-07-29T08:40:14;34.13;28.03
68804;SHT31;55787;52.678;13.314;2022-07-29T08:42:41;34.85;27.54
68804;SHT31;55787;52.678;13.314;2022-07-29T08:45:08;34.95;28.58
68804;SHT31;55787;52.678;13.314;2022-07-29T08:47:35;35.72;26.18
68804;SHT31;55787;52.678;13.314;2022-07-29T08:50:09;35.55;26.89
68804;SHT31;55787;52.678;13.314;2022-07-29T08:52:38;36.10;26.44
68804;SHT31;55787;52.678;13.314;2022-07-29T08:55:06;35.62;27.10
68804;SHT31;55787;52.678;13.314;2022-07-29T08:57:34;35.28;26.71
68804;SHT31;55787;52.678;13.314;2022-07-29T09:00:06;35.74;26.65
68804;SHT31;55787;52.678;13.314;2022-07-29T09:02:41;36.16;26.16
68804;SHT31;55787;52.678;13.314;2022-07-29T09:05:12;36.98;25.73
68804;SHT31;55787;52.678;13.314;2022-07-29T09:07:39;37.57;22.76
68804;SHT31;55787;52.678;13.314;2022-07-29T09:10:06;37.73;22.93
68804;SHT31;55787;52.678;13.314;2022-07-29T09:12:33;37.12;22.18
68804;SHT31;55787;52.678;13.314;2022-07-29T09:15:03;37.16;22.12
68804;SHT31;55787;52.678;13.314;2022-07-29T09:17:43;37.20;21.31
68804;SHT31;55787;52.678;13.314;2022-07-29T09:20:13;37.16;21.82
68804;SHT31;55787;52.678;13.314;2022-07-29T09:22:40;36.85;22.83
68804;SHT31;55787;52.678;13.314;2022-07-29T09:25:08;36.52;24.72
68804;SHT31;55787;52.678;13.314;2022-07-29T09:27:34;35.97;23.18
68804;SHT31;55787;52.678;13.314;2022-07-29T09:30:06;36.72;21.77
68804;SHT31;55787;52.678;13.314;2022-07-29T09:32:53;37.16;21.27
68804;SHT31;55787;52.678;13.314;2022-07-29T09:35:22;36.75;21.99
68804;SHT31;55787;52.678;13.314;2022-07-29T09:37:49;37.09;22.31
68804;SHT31;55787;52.678;13.314;2022-07-29T09:40:21;37.02;20.83
68804;SHT31;55787;52.678;13.314;2022-07-29T09:42:48;36.82;23.14
68804;SHT31;55787;52.678;13.314;2022-07-29T09:45:33;36.41;22.97
68804;SHT31;55787;52.678;13.314;2022-07-29T09:48:13;36.44;23.30
68804;SHT31;55787;52.678;13.314;2022-07-29T09:50:40;37.49;22.49
68804;SHT31;55787;52.678;13.314;2022-07-29T09:53:07;37.40;19.79
68804;SHT31;55787;52.678;13.314;2022-07-29T09:55:49;36.25;20.89
68804;SHT31;55787;52.678;13.314;2022-07-29T09:58:18;35.77;21.09
68804;SHT31;55787;52.678;13.314;2022-07-29T10:00:47;34.57;22.03
68804;SHT31;55787;52.678;13.314;2022-07-29T10:03:15;34.07;21.99
68804;SHT31;55787;52.678;13.314;2022-07-29T10:05:42;33.73;22.59
68804;SHT31;55787;52.678;13.314;2022-07-29T10:08:10;34.60;20.93
68804;SHT31;55787;52.678;13.314;2022-07-29T10:10:40;36.11;22.57
68804;SHT31;55787;52.678;13.314;2022-07-29T10:13:10;36.74;19.38
68804;SHT31;55787;52.678;13.314;2022-07-29T10:15:43;37.43;19.07
68804;SHT31;55787;52.678;13.314;2022-07-29T10:18:13;37.34;19.19
68804;SHT31;55787;52.678;13.314;2022-07-29T10:20:40;37.87;18.58
68804;SHT31;55787;52.678;13.314;2022-07-29T10:23:06;37.74;18.85
68804;SHT31;55787;52.678;13.314;2022-07-29T10:25:33;38.79;19.64
68804;SHT31;55787;52.678;13.314;2022-07-29T10:27:59;39.14;19.26
68804;SHT31;55787;52.678;13.314;2022-07-29T10:30:26;38.95;19.37
68804;SHT31;55787;52.678;13.314;2022-07-29T10:44:02;36.00;21.53
68804;SHT31;55787;52.678;13.314;2022-07-29T10:46:35;33.85;22.69
68804;SHT31;55787;52.678;13.314;2022-07-29T10:49:11;32.52;23.92
68804;SHT31;55787;52.678;13.314;2022-07-29T10:54:39;31.40;26.35
68804;SHT31;55787;52.678;13.314;2022-07-29T10:57:29;31.40;26.54
68804;SHT31;55787;52.678;13.314;2022-07-29T11:00:26;30.90;26.24
68804;SHT31;55787;52.678;13.314;2022-07-29T11:02:53;31.30;26.01
68804;SHT31;55787;52.678;13.314;2022-07-29T11:05:22;31.50;25.38
68804;SHT31;55787;52.678;13.314;2022-07-29T11:10:47;32.77;24.56
68804;SHT31;55787;52.678;13.314;2022-07-29T11:16:09;34.37;25.10
68804;SHT31;55787;52.678;13.314;2022-07-29T11:18:40;35.05;22.57
68804;SHT31;55787;52.678;13.314;2022-07-29T11:21:35;36.00;22.64
68804;SHT31;55787;52.678;13.314;2022-07-29T11:24:22;36.67;20.50
68804;SHT31;55787;52.678;13.314;2022-07-29T11:27:15;36.95;21.25
68804;SHT31;55787;52.678;13.314;2022-07-29T11:32:19;36.40;21.09
68804;SHT31;55787;52.678;13.314;2022-07-29T11:34:49;36.07;21.04
68804;SHT31;55787;52.678;13.314;2022-07-29T11:37:18;36.28;20.83
68804;SHT31;55787;52.678;13.314;2022-07-29T11:45:06;34.78;22.68
68804;SHT31;55787;52.678;13.314;2022-07-29T11:47:56;35.73;23.53
68804;SHT31;55787;52.678;13.314;2022-07-29T11:50:44;36.49;21.71
68804;SHT31;55787;52.678;13.314;2022-07-29T11:53:14;36.95;20.90
68804;SHT31;55787;52.678;13.314;2022-07-29T11:55:41;37.00;21.67
68804;SHT31;55787;52.678;13.314;2022-07-29T11:58:21;37.06;20.66
68804;SHT31;55787;52.678;13.314;2022-07-29T12:00:51;36.89;21.13
68804;SHT31;55787;52.678;13.314;2022-07-29T12:03:25;37.13;21.44
68804;SHT31;55787;52.678;13.314;2022-07-29T12:06:01;36.96;21.33
68804;SHT31;55787;52.678;13.314;2022-07-29T12:08:27;36.65;20.83
68804;SHT31;55787;52.678;13.314;2022-07-29T12:10:54;36.04;22.57
68804;SHT31;55787;52.678;13.314;2022-07-29T12:13:21;35.42;22.04
68804;SHT31;55787;52.678;13.314;2022-07-29T12:15:55;34.72;23.12
68804;SHT31;55787;52.678;13.314;2022-07-29T12:18:25;34.98;24.03
68804;SHT31;55787;52.678;13.314;2022-07-29T12:20:57;35.31;24.23
68804;SHT31;55787;52.678;13.314;2022-07-29T12:23:29;36.14;22.40
68804;SHT31;55787;52.678;13.314;2022-07-29T12:26:03;36.11;21.97
68804;SHT31;55787;52.678;13.314;2022-07-29T12:28:38;35.38;23.58
68804;SHT31;55787;52.678;13.314;2022-07-29T12:31:05;35.82;23.69
68804;SHT31;55787;52.678;13.314;2022-07-29T12:33:33;35.60;24.17
68804;SHT31;55787;52.678;13.314;2022-07-29T12:36:01;35.56;22.38
68804;SHT31;55787;52.678;13.314;2022-07-29T12:38:37;35.67;22.66
68804;SHT31;55787;52.678;13.314;2022-07-29T12:41:06;35.21;24.63
68804;SHT31;55787;52.678;13.314;2022-07-29T12:43:33;35.79;23.23
68804;SHT31;55787;52.678;13.314;2022-07-29T12:46:12;35.39;24.07
68804;SHT31;55787;52.678;13.314;2022-07-29T12:48:41;35.25;23.25
68804;SHT31;55787;52.678;13.314;2022-07-29T12:51:08;35.18;23.77
68804;SHT31;55787;52.678;13.314;2022-07-29T12:53:36;35.18;26.33
68804;SHT31;55787;52.678;13.314;2022-07-29T12:56:04;35.59;25.53
68804;SHT31;55787;52.678;13.314;2022-07-29T12:58:51;36.10;24.44
68804;SHT31;55787;52.678;13.314;2022-07-29T13:01:18;35.69;24.77
68804;SHT31;55787;52.678;13.314;2022-07-29T13:09:15;33.79;26.80
68804;SHT31;55787;52.678;13.314;2022-07-29T13:11:44;33.95;27.14
68804;SHT31;55787;52.678;13.314;2022-07-29T13:14:30;34.53;25.72
68804;SHT31;55787;52.678;13.314;2022-07-29T13:17:09;33.32;26.51
68804;SHT31;55787;52.678;13.314;2022-07-29T13:19:41;33.63;27.85
68804;SHT31;55787;52.678;13.314;2022-07-29T13:22:09;34.17;27.20
68804;SHT31;55787;52.678;13.314;2022-07-29T13:27:25;34.48;26.98
68804;SHT31;55787;52.678;13.314;2022-07-29T13:29:53;34.58;26.21
68804;SHT31;55787;52.678;13.314;2022-07-29T13:32:23;34.57;26.36
68804;SHT31;55787;52.678;13.314;2022-07-29T13:34:59;34.47;27.03
68804;SHT31;55787;52.678;13.314;2022-07-29T13:37:31;33.79;26.04
68804;SHT31;55787;52.678;13.314;2022-07-29T13:40:01;33.59;26.98
68804;SHT31;55787;52.678;13.314;2022-07-29T13:42:29;33.35;28.02
68804;SHT31;55787;52.678;13.314;2022-07-29T13:44:55;33.21;28.34
68804;SHT31;55787;52.678;13.314;2022-07-29T13:47:23;33.22;27.77
68804;SHT31;55787;52.678;13.314;2022-07-29T13:49:59;33.06;27.76
68804;SHT31;55787;52.678;13.314;2022-07-29T13:52:25;32.46;28.27
68804;SHT31;55787;52.678;13.314;2022-07-29T13:54:52;31.96;30.07
68804;SHT31;55787;52.678;13.314;2022-07-29T13:57:18;32.05;29.47
68804;SHT31;55787;52.678;13.314;2022-07-29T13:59:45;32.12;30.64
68804;SHT31;55787;52.678;13.314;2022-07-29T14:02:18;32.22;29.73
68804;SHT31;55787;52.678;13.314;2022-07-29T14:04:45;32.28;29.26
68804;SHT31;55787;52.678;13.314;2022-07-29T14:07:11;32.50;30.60
68804;SHT31;55787;52.678;13.314;2022-07-29T14:09:42;32.60;28.59
68804;SHT31;55787;52.678;13.314;2022-07-29T14:12:08;32.63;28.63
68804;SHT31;55787;52.678;13.314;2022-07-29T14:14:35;32.18;29.63
68804;SHT31;55787;52.678;13.314;2022-07-29T14:17:03;31.91;29.47
68804;SHT31;55787;52.678;13.314;2022-07-29T14:19:30;31.54;30.20
68804;SHT31;55787;52.678;13.314;2022-07-29T14:21:58;31.52;30.48
68804;SHT31;55787;52.678;13.314;2022-07-29T14:24:25;31.71;31.66
68804;SHT31;55787;52.678;13.314;2022-07-29T14:26:51;31.67;30.24
68804;SHT31;55787;52.678;13.314;2022-07-29T14:29:18;31.77;31.11
68804;SHT31;55787;52.678;13.314;2022-07-29T14:31:45;31.74;29.62
68804;SHT31;55787;52.678;13.314;2022-07-29T14:34:11;31.74;30.77
68804;SHT31;55787;52.678;13.314;2022-07-29T14:36:38;31.74;30.71
68804;SHT31;55787;52.678;13.314;2022-07-29T14:39:04;31.48;30.10
68804;SHT31;55787;52.678;13.314;2022-07-29T14:41:30;31.31;30.43
68804;SHT31;55787;52.678;13.314;2022-07-29T14:43:57;31.40;31.86
68804;SHT31;55787;52.678;13.314;2022-07-29T14:46:27;31.58;31.01
68804;SHT31;55787;52.678;13.314;2022-07-29T14:48:54;31.65;30.64
68804;SHT31;55787;52.678;13.314;2022-07-29T14:51:20;31.60;30.43
68804;SHT31;55787;52.678;13.314;2022-07-29T14:53:47;31.51;30.47
68804;SHT31;55787;52.678;13.314;2022-07-29T14:56:14;30.93;31.41
68804;SHT31;55787;52.678;13.314;2022-07-29T14:59:00;30.42;32.29
68804;SHT31;55787;52.678;13.314;2022-07-29T15:01:27;29.91;33.91
68804;SHT31;55787;52.678;13.314;2022-07-29T15:03:53;29.87;33.60
68804;SHT31;55787;52.678;13.314;2022-07-29T15:06:25;29.97;33.43
68804;SHT31;55787;52.678;13.314;2022-07-29T15:08:52;30.15;33.70
68804;SHT31;55787;52.678;13.314;2022-07-29T15:11:18;30.27;33.18
68804;SHT31;55787;52.678;13.314;2022-07-29T15:13:45;30.41;31.63
68804;SHT31;55787;52.678;13.314;2022-07-29T15:16:11;30.41;30.69
68804;SHT31;55787;52.678;13.314;2022-07-29T15:18:38;30.38;31.04
68804;SHT31;55787;52.678;13.314;2022-07-29T15:21:05;30.39;31.92
68804;SHT31;55787;52.678;13.314;2022-07-29T15:23:33;30.42;32.02
68804;SHT31;55787;52.678;13.314;2022-07-29T15:26:03;30.21;30.68
68804;SHT31;55787;52.678;13.314;2022-07-29T15:28:30;29.93;33.24
68804;SHT31;55787;52.678;13.314;2022-07-29T15:30:56;29.49;33.00
68804;SHT31;55787;52.678;13.314;2022-07-29T15:33:23;29.43;35.56
68804;SHT31;55787;52.678;13.314;2022-07-29T15:35:49;29.47;33.67
68804;SHT31;55787;52.678;13.314;2022-07-29T15:38:16;29.30;32.31
68804;SHT31;55787;52.678;13.314;2022-07-29T15:40:42;29.19;34.38
68804;SHT31;55787;52.678;13.314;2022-07-29T15:43:10;29.12;34.49
68804;SHT31;55787;52.678;13.314;2022-07-29T15:45:40;29.25;34.09
68804;SHT31;55787;52.678;13.314;2022-07-29T15:48:08;29.40;33.14
68804;SHT31;55787;52.678;13.314;2022-07-29T15:50:40;29.39;32.70
68804;SHT31;55787;52.678;13.314;2022-07-29T15:53:06;29.45;33.75
68804;SHT31;55787;52.678;13.314;2022-07-29T15:55:32;29.36;32.75
68804;SHT31;55787;52.678;13.314;2022-07-29T15:57:59;29.22;32.85
68804;SHT31;55787;52.678;13.314;2022-07-29T16:00:26;29.15;32.82
68804;SHT31;55787;52.678;13.314;2022-07-29T16:02:53;28.99;34.99
68804;SHT31;55787;52.678;13.314;2022-07-29T16:05:20;28.99;34.47
68804;SHT31;55787;52.678;13.314;2022-07-29T16:07:48;29.02;35.10
68804;SHT31;55787;52.678;13.314;2022-07-29T16:10:14;28.96;33.21
68804;SHT31;55787;52.678;13.314;2022-07-29T16:12:41;28.94;33.86
68804;SHT31;55787;52.678;13.314;2022-07-29T16:15:07;28.85;35.22